createdAt,value
2023-03-16T00:01:37.227Z,-1.20
2023-03-16T00:04:26.715Z,-1.10
2023-03-16T00:07:17.050Z,-1.10
2023-03-16T00:10:07.332Z,-1.20
2023-03-16T00:12:58.927Z,-1.20
2023-03-16T00:15:52.711Z,-1.30
2023-03-16T00:18:42.329Z,-1.30
2023-03-16T00:21:32.517Z,-1.30
2023-03-16T00:24:25.325Z,-1.40
2023-03-16T00:27:16.048Z,-1.50
2023-03-16T00:30:07.970Z,-1.40
2023-03-16T00:32:57.477Z,-1.50
2023-03-16T00:35:50.387Z,-1.50
2023-03-16T00:38:45.721Z,-1.50
2023-03-16T00:41:38.904Z,-1.50
2023-03-16T00:44:28.267Z,-1.50
2023-03-16T00:47:19.536Z,-1.80
2023-03-16T00:50:09.837Z,-1.60
2023-03-16T00:52:59.258Z,-1.40
2023-03-16T00:55:48.627Z,-1.20
2023-03-16T00:58:40.596Z,-1.10
2023-03-16T01:01:30.041Z,-0.90
2023-03-16T01:04:21.235Z,-0.80
2023-03-16T01:07:13.017Z,-0.80
2023-03-16T01:10:02.364Z,-0.80
2023-03-16T01:12:56.413Z,-0.80
2023-03-16T01:15:46.626Z,-1.10
2023-03-16T01:18:35.964Z,-1.10
2023-03-16T01:21:27.911Z,-1.20
2023-03-16T01:24:17.232Z,-1.40
2023-03-16T01:27:07.382Z,-1.40
2023-03-16T01:29:56.725Z,-1.50
2023-03-16T01:32:46.237Z,-1.40
2023-03-16T01:35:35.803Z,-1.50
2023-03-16T01:38:26.945Z,-1.50
2023-03-16T01:41:17.359Z,-1.40
2023-03-16T01:44:06.837Z,-1.30
2023-03-16T01:46:56.188Z,-1.30
2023-03-16T01:49:48.474Z,-1.10
2023-03-16T01:52:39.892Z,-1.20
2023-03-16T01:55:30.845Z,-0.90
2023-03-16T01:58:20.325Z,-0.80
2023-03-16T02:01:09.823Z,-0.80
2023-03-16T02:04:06.971Z,-0.80
2023-03-16T02:06:59.039Z,-0.90
2023-03-16T02:09:53.746Z,-1.20
2023-03-16T02:12:38.960Z,-1.10
2023-03-16T02:15:29.040Z,-1.00
2023-03-16T02:18:19.003Z,-1.00
2023-03-16T02:21:18.339Z,-1.50
2023-03-16T02:24:08.909Z,-1.30
2023-03-16T02:27:05.011Z,-1.20
2023-03-16T02:30:01.582Z,-1.30
2023-03-16T02:32:53.545Z,-1.30
2023-03-16T02:35:43.176Z,-1.10
2023-03-16T02:38:33.669Z,-1.20
2023-03-16T02:41:23.878Z,-1.40
2023-03-16T02:44:18.742Z,-1.40
2023-03-16T02:47:15.309Z,-1.50
2023-03-16T02:50:07.218Z,-1.40
2023-03-16T02:52:57.470Z,-1.50
2023-03-16T02:55:47.058Z,-1.30
2023-03-16T02:58:37.056Z,-1.50
2023-03-16T03:01:26.679Z,-1.50
2023-03-16T03:04:17.843Z,-1.80
2023-03-16T03:07:07.616Z,-1.60
2023-03-16T03:09:57.384Z,-1.40
2023-03-16T03:12:49.781Z,-1.60
2023-03-16T03:15:39.658Z,-1.60
2023-03-16T03:18:29.157Z,-1.70
2023-03-16T03:21:20.718Z,-1.90
2023-03-16T03:24:11.116Z,-2.00
2023-03-16T03:27:01.922Z,-1.80
2023-03-16T03:29:51.482Z,-1.80
2023-03-16T03:32:41.423Z,-1.80
2023-03-16T03:35:31.162Z,-2.20
2023-03-16T03:38:22.258Z,-1.80
2023-03-16T03:41:11.965Z,-1.90
2023-03-16T03:44:01.608Z,-1.80
2023-03-16T03:46:52.026Z,-2.00
2023-03-16T03:49:41.838Z,-2.00
2023-03-16T03:52:31.534Z,-2.10
2023-03-16T03:55:22.586Z,-2.10
2023-03-16T03:58:12.437Z,-2.10
2023-03-16T04:01:02.308Z,-2.20
2023-03-16T04:03:51.906Z,-2.20
2023-03-16T04:06:42.101Z,-2.20
2023-03-16T04:09:34.852Z,-2.20
2023-03-16T04:12:25.987Z,-2.20
2023-03-16T04:15:16.009Z,-2.20
2023-03-16T04:18:05.916Z,-2.20
2023-03-16T04:20:55.467Z,-2.00
2023-03-16T04:23:45.181Z,-2.70
2023-03-16T04:26:35.146Z,-2.10
2023-03-16T04:29:26.790Z,-2.30
2023-03-16T04:32:16.489Z,-2.20
2023-03-16T04:35:06.726Z,-2.30
2023-03-16T04:37:56.515Z,-2.40
2023-03-16T04:40:46.178Z,-2.10
2023-03-16T04:43:37.592Z,-2.40
2023-03-16T04:46:29.969Z,-2.60
2023-03-16T04:49:19.679Z,-2.20
2023-03-16T04:52:09.827Z,-2.20
2023-03-16T04:54:59.581Z,-2.60
2023-03-16T04:57:49.055Z,-2.20
2023-03-16T05:00:38.779Z,-2.20
2023-03-16T05:03:30.187Z,-2.10
2023-03-16T05:06:19.789Z,-2.20
2023-03-16T05:09:10.101Z,-2.30
2023-03-16T05:12:00.502Z,-2.30
2023-03-16T05:14:50.039Z,-2.40
2023-03-16T05:17:40.434Z,-2.30
2023-03-16T05:20:31.951Z,-2.20
2023-03-16T05:23:21.647Z,-2.40
2023-03-16T05:26:11.612Z,-2.00
2023-03-16T05:29:01.279Z,-2.20
2023-03-16T05:31:50.918Z,-2.10
2023-03-16T05:34:43.839Z,-2.20
2023-03-16T05:37:35.127Z,-2.10
2023-03-16T05:40:25.081Z,-1.80
2023-03-16T05:43:14.880Z,-2.00
2023-03-16T05:46:04.600Z,-1.80
2023-03-16T05:48:54.544Z,-1.80
2023-03-16T05:51:45.044Z,-1.70
2023-03-16T05:54:36.213Z,-2.00
2023-03-16T05:57:26.274Z,-1.90
2023-03-16T06:00:20.142Z,-1.40
2023-03-16T06:03:09.756Z,-1.40
2023-03-16T06:05:59.708Z,-1.30
2023-03-16T06:08:49.817Z,-1.20
2023-03-16T06:11:40.966Z,-1.20
2023-03-16T06:14:30.886Z,-1.00
2023-03-16T06:17:20.344Z,-1.00
2023-03-16T06:20:13.629Z,-0.90
2023-03-16T06:23:03.273Z,-0.80
2023-03-16T06:25:55.316Z,-0.70
2023-03-16T06:28:46.470Z,-0.60
2023-03-16T06:31:36.898Z,-0.50
2023-03-16T06:34:26.744Z,-0.40
2023-03-16T06:37:16.993Z,-0.30
2023-03-16T06:40:07.795Z,-0.20
2023-03-16T06:42:57.637Z,-0.10
2023-03-16T06:45:48.794Z,0.10
2023-03-16T06:48:38.526Z,0.20
2023-03-16T06:51:28.295Z,0.30
2023-03-16T06:54:18.084Z,0.40
2023-03-16T06:57:07.769Z,0.50
2023-03-16T06:59:57.647Z,0.60
2023-03-16T07:02:49.576Z,0.80
2023-03-16T07:05:39.144Z,0.90
2023-03-16T07:08:28.726Z,1.00
2023-03-16T07:11:18.525Z,1.10
2023-03-16T07:14:08.761Z,1.20
2023-03-16T07:16:58.760Z,1.40
2023-03-16T07:19:50.126Z,1.50
2023-03-16T07:22:39.815Z,1.60
2023-03-16T07:25:29.800Z,1.70
2023-03-16T07:28:19.695Z,1.80
2023-03-16T07:31:09.939Z,1.90
2023-03-16T07:34:00.369Z,2.00
2023-03-16T07:36:53.139Z,2.10
2023-03-16T07:39:43.460Z,2.30
2023-03-16T07:42:33.226Z,2.30
2023-03-16T07:45:22.988Z,2.50
2023-03-16T07:48:12.940Z,2.60
2023-03-16T07:51:02.573Z,2.70
2023-03-16T07:53:54.352Z,2.80
2023-03-16T07:56:49.205Z,2.80
2023-03-16T07:59:40.200Z,2.90
2023-03-16T08:02:30.078Z,3.10
2023-03-16T08:05:20.205Z,3.10
2023-03-16T08:08:10.118Z,3.10
2023-03-16T08:11:01.311Z,3.20
2023-03-16T08:13:54.524Z,3.30
2023-03-16T08:16:44.140Z,3.50
2023-03-16T08:19:34.185Z,3.60
2023-03-16T08:22:24.068Z,3.70
2023-03-16T08:25:14.434Z,3.90
2023-03-16T08:28:06.454Z,4.10
2023-03-16T08:30:59.004Z,4.10
2023-03-16T08:33:50.089Z,3.90
2023-03-16T08:36:41.070Z,3.80
2023-03-16T08:39:30.925Z,4.10
2023-03-16T08:42:21.635Z,4.40
2023-03-16T08:45:14.518Z,4.40
2023-03-16T08:48:05.702Z,4.60
2023-03-16T08:50:55.714Z,4.70
2023-03-16T08:53:46.182Z,4.90
2023-03-16T08:56:35.799Z,5.00
2023-03-16T08:59:30.143Z,5.20
2023-03-16T09:02:21.799Z,5.40
2023-03-16T09:05:13.697Z,5.50
2023-03-16T09:08:05.429Z,5.50
2023-03-16T09:11:02.743Z,5.70
2023-03-16T09:13:54.481Z,5.90
2023-03-16T09:16:44.721Z,5.90
2023-03-16T09:19:50.734Z,6.30
2023-03-16T09:22:49.284Z,6.60
2023-03-16T09:25:47.543Z,6.80
2023-03-16T09:28:45.586Z,6.70
2023-03-16T09:31:43.885Z,6.80
2023-03-16T09:34:35.082Z,7.10
2023-03-16T09:37:25.325Z,7.10
2023-03-16T09:40:25.130Z,7.00
2023-03-16T09:43:40.754Z,7.30
2023-03-16T09:46:35.103Z,7.90
2023-03-16T09:49:29.749Z,8.10
2023-03-16T09:52:34.487Z,8.10
2023-03-16T09:55:34.284Z,8.00
2023-03-16T09:58:29.978Z,7.90
2023-03-16T10:01:36.585Z,7.90
2023-03-16T10:04:44.923Z,8.00
2023-03-16T10:07:49.184Z,8.20
2023-03-16T10:11:01.105Z,7.80
2023-03-16T10:13:56.032Z,7.30
2023-03-16T10:16:52.020Z,7.10
2023-03-16T10:19:45.891Z,7.00
2023-03-16T10:22:40.038Z,7.00
2023-03-16T10:25:34.623Z,6.90
2023-03-16T10:28:26.622Z,6.70
2023-03-16T10:31:19.231Z,6.70
2023-03-16T10:34:15.201Z,6.80
2023-03-16T10:37:06.557Z,7.10
2023-03-16T10:40:02.572Z,6.90
2023-03-16T10:42:58.149Z,7.00
2023-03-16T10:45:48.469Z,7.00
2023-03-16T10:48:40.680Z,6.90
2023-03-16T10:51:34.525Z,6.60
2023-03-16T10:54:32.023Z,6.90
2023-03-16T10:57:35.783Z,6.70
2023-03-16T11:00:30.364Z,6.60
2023-03-16T11:03:29.450Z,6.40
2023-03-16T11:06:25.216Z,6.40
2023-03-16T11:09:20.952Z,6.40
2023-03-16T11:12:23.595Z,6.60
2023-03-16T11:15:25.795Z,6.60
2023-03-16T11:18:28.652Z,6.80
2023-03-16T11:21:23.485Z,6.90
2023-03-16T11:24:18.911Z,7.00
2023-03-16T11:27:19.108Z,7.00
2023-03-16T11:30:18.492Z,7.10
2023-03-16T11:33:14.926Z,7.30
2023-03-16T11:36:20.680Z,7.30
2023-03-16T11:39:19.212Z,7.20
2023-03-16T11:42:32.535Z,7.10
2023-03-16T11:45:31.081Z,6.90
2023-03-16T11:48:38.994Z,6.80
2023-03-16T11:51:42.795Z,6.70
2023-03-16T11:54:46.907Z,6.70
2023-03-16T11:57:50.025Z,7.00
2023-03-16T12:00:54.364Z,7.30
2023-03-16T12:03:59.446Z,7.20
2023-03-16T12:07:03.501Z,7.10
2023-03-16T12:10:11.558Z,7.00
2023-03-16T12:13:18.728Z,6.60
2023-03-16T12:16:17.580Z,6.40
2023-03-16T12:19:13.647Z,6.60
2023-03-16T12:22:10.714Z,6.50
2023-03-16T12:25:00.478Z,6.80
2023-03-16T12:27:54.822Z,7.60
2023-03-16T12:30:52.417Z,7.90
2023-03-16T12:33:56.951Z,8.30
2023-03-16T12:37:10.118Z,8.80
2023-03-16T12:40:09.965Z,8.80
2023-03-16T12:43:11.200Z,8.70
2023-03-16T12:46:06.614Z,8.60
2023-03-16T12:49:00.939Z,8.90
2023-03-16T12:52:01.896Z,9.30
2023-03-16T12:54:53.627Z,9.60
2023-03-16T12:57:44.987Z,9.80
2023-03-16T13:00:39.413Z,9.80
2023-03-16T13:03:29.997Z,9.60
2023-03-16T13:06:25.508Z,9.20
2023-03-16T13:09:22.055Z,9.00
2023-03-16T13:12:23.199Z,9.10
2023-03-16T13:15:31.948Z,9.30
2023-03-16T13:18:25.251Z,9.50
2023-03-16T13:21:22.642Z,9.40
2023-03-16T13:24:27.140Z,9.50
2023-03-16T13:27:23.720Z,9.40
2023-03-16T13:30:21.978Z,9.30
2023-03-16T13:33:21.369Z,9.30
2023-03-16T13:36:13.967Z,9.40
2023-03-16T13:39:14.561Z,9.20
2023-03-16T13:42:06.544Z,8.50
2023-03-16T13:44:58.169Z,8.40
2023-03-16T13:47:49.422Z,8.10
2023-03-16T13:50:43.539Z,8.00
2023-03-16T13:53:34.633Z,7.90
2023-03-16T13:56:30.065Z,7.90
2023-03-16T13:59:20.453Z,7.70
2023-03-16T14:02:20.104Z,7.50
2023-03-16T14:05:25.682Z,7.40
2023-03-16T14:08:18.658Z,7.50
2023-03-16T14:11:09.100Z,7.80
2023-03-16T14:14:01.487Z,8.40
2023-03-16T14:16:51.880Z,8.70
2023-03-16T14:19:46.764Z,8.90
2023-03-16T14:22:39.321Z,8.80
2023-03-16T14:25:29.746Z,8.70
2023-03-16T14:28:23.012Z,8.90
2023-03-16T14:31:15.437Z,8.80
2023-03-16T14:34:09.044Z,8.80
2023-03-16T14:37:09.851Z,8.40
2023-03-16T14:40:06.378Z,8.30
2023-03-16T14:42:59.482Z,8.10
2023-03-16T14:45:49.107Z,7.90
2023-03-16T14:48:41.923Z,7.70
2023-03-16T14:51:33.685Z,7.40
2023-03-16T14:54:24.329Z,7.10
2023-03-16T14:57:19.466Z,7.00
2023-03-16T15:00:11.224Z,6.90
2023-03-16T15:03:05.507Z,6.80
2023-03-16T15:05:57.251Z,6.80
2023-03-16T15:08:51.231Z,6.70
2023-03-16T15:11:43.707Z,6.70
2023-03-16T15:14:50.321Z,6.60
2023-03-16T15:17:40.057Z,6.40
2023-03-16T15:20:33.687Z,6.10
2023-03-16T15:23:24.563Z,5.80
2023-03-16T15:26:15.934Z,5.60
2023-03-16T15:29:08.842Z,5.40
2023-03-16T15:31:58.629Z,5.30
2023-03-16T15:34:48.330Z,5.20
2023-03-16T15:37:38.425Z,5.20
2023-03-16T15:40:32.034Z,5.30
2023-03-16T15:43:24.228Z,5.50
2023-03-16T15:46:14.915Z,5.60
2023-03-16T15:49:04.652Z,5.60
2023-03-16T15:51:57.700Z,5.60
2023-03-16T15:54:49.527Z,5.40
2023-03-16T15:57:40.581Z,5.30
2023-03-16T16:00:35.641Z,5.00
2023-03-16T16:03:26.580Z,4.80
2023-03-16T16:06:20.089Z,4.60
2023-03-16T16:09:11.138Z,4.40
2023-03-16T16:12:02.388Z,4.20
2023-03-16T16:14:53.562Z,4.10
2023-03-16T16:17:57.462Z,4.00
2023-03-16T16:20:54.217Z,3.90
2023-03-16T16:23:44.024Z,3.70
2023-03-16T16:26:49.061Z,3.60
2023-03-16T16:29:42.040Z,3.50
2023-03-16T16:32:33.581Z,3.30
2023-03-16T16:35:24.996Z,3.20
2023-03-16T16:38:14.606Z,3.10
2023-03-16T16:41:09.017Z,3.00
2023-03-16T16:44:05.480Z,2.80
2023-03-16T16:46:56.741Z,2.70
2023-03-16T16:49:48.488Z,2.60
2023-03-16T16:52:38.634Z,2.50
2023-03-16T16:55:30.397Z,2.40
2023-03-16T16:58:24.742Z,2.30
2023-03-16T17:01:18.775Z,2.20
2023-03-16T17:04:16.395Z,2.00
2023-03-16T17:07:14.745Z,2.00
2023-03-16T17:10:04.721Z,1.80
2023-03-16T17:12:59.079Z,1.70
2023-03-16T17:15:51.640Z,1.60
2023-03-16T17:18:41.890Z,1.50
2023-03-16T17:21:34.121Z,1.40
2023-03-16T17:24:26.804Z,1.30
2023-03-16T17:27:19.008Z,1.20
2023-03-16T17:30:22.106Z,1.10
2023-03-16T17:33:17.124Z,1.00
2023-03-16T17:36:11.157Z,1.00
2023-03-16T17:39:04.061Z,0.90
2023-03-16T17:41:59.924Z,0.70
2023-03-16T17:44:52.903Z,0.70
2023-03-16T17:47:44.421Z,0.60
2023-03-16T17:50:36.404Z,0.60
2023-03-16T17:53:27.905Z,0.50
2023-03-16T17:56:21.448Z,0.40
2023-03-16T17:59:20.711Z,0.40
2023-03-16T18:02:45.923Z,0.30
2023-03-16T18:05:38.545Z,0.20
2023-03-16T18:08:36.889Z,0.10
2023-03-16T18:11:34.607Z,0.10
2023-03-16T18:14:37.699Z,0.00
2023-03-16T18:17:32.527Z,-0.10
2023-03-16T18:20:30.186Z,-0.10
2023-03-16T18:23:24.164Z,-0.20
2023-03-16T18:26:15.043Z,-0.20
2023-03-16T18:29:09.385Z,-0.30
2023-03-16T18:32:02.504Z,-0.30
2023-03-16T18:34:54.226Z,-0.40
2023-03-16T18:37:46.447Z,-0.40
2023-03-16T18:40:39.048Z,-0.50
2023-03-16T18:43:31.025Z,-0.50
2023-03-16T18:46:27.230Z,-0.50
2023-03-16T18:49:24.925Z,-0.50
2023-03-16T18:52:20.517Z,-0.50
2023-03-16T18:55:21.062Z,-0.60
2023-03-16T18:58:19.702Z,-0.60
2023-03-16T19:01:19.328Z,-0.70
2023-03-16T19:04:14.611Z,-0.70
2023-03-16T19:07:13.115Z,-0.70
2023-03-16T19:10:09.643Z,-0.70
2023-03-16T19:13:06.127Z,-0.70
2023-03-16T19:15:59.280Z,-0.70
2023-03-16T19:18:50.731Z,-0.80
2023-03-16T19:21:45.337Z,-0.80
2023-03-16T19:24:46.414Z,-0.80
2023-03-16T19:27:46.239Z,-0.90
2023-03-16T19:30:39.960Z,-0.90
2023-03-16T19:33:33.758Z,-0.90
2023-03-16T19:36:33.853Z,-1.00
2023-03-16T19:39:27.649Z,-1.10
2023-03-16T19:42:25.387Z,-1.10
2023-03-16T19:45:23.925Z,-1.20
2023-03-16T19:48:21.744Z,-1.20
2023-03-16T19:51:16.377Z,-1.30
2023-03-16T19:54:08.529Z,-1.30
2023-03-16T19:57:05.388Z,-1.40
2023-03-16T20:00:02.346Z,-1.60
2023-03-16T20:02:56.745Z,-1.40
2023-03-16T20:05:48.663Z,-1.40
2023-03-16T20:08:39.925Z,-1.50
2023-03-16T20:11:32.326Z,-1.50
2023-03-16T20:14:28.904Z,-1.50
2023-03-16T20:17:24.851Z,-1.50
2023-03-16T20:20:28.692Z,-1.50
2023-03-16T20:23:25.341Z,-1.60
2023-03-16T20:26:24.170Z,-1.40
2023-03-16T20:29:23.049Z,-1.50
2023-03-16T20:32:22.584Z,-1.50
2023-03-16T20:35:24.014Z,-1.50
2023-03-16T20:38:16.286Z,-1.70
2023-03-16T20:41:19.597Z,-1.70
2023-03-16T20:44:17.310Z,-1.70
2023-03-16T20:47:08.887Z,-1.70
2023-03-16T20:50:03.529Z,-1.70
2023-03-16T20:52:54.953Z,-1.70
2023-03-16T20:55:45.640Z,-1.80
2023-03-16T20:58:39.373Z,-1.70
2023-03-16T21:01:32.920Z,-1.80
2023-03-16T21:04:26.425Z,-2.20
2023-03-16T21:07:19.983Z,-1.70
2023-03-16T21:10:11.168Z,-1.70
2023-03-16T21:13:01.725Z,-1.90
2023-03-16T21:15:52.050Z,-1.80
2023-03-16T21:18:42.899Z,-2.00
2023-03-16T21:21:33.339Z,-2.20
2023-03-16T21:24:25.488Z,-2.00
2023-03-16T21:27:23.881Z,-2.20
2023-03-16T21:30:36.733Z,-2.10
2023-03-16T21:33:31.538Z,-2.40
2023-03-16T21:36:24.592Z,-2.10
2023-03-16T21:39:22.845Z,-2.00
2023-03-16T21:42:14.159Z,-2.00
2023-03-16T21:45:04.104Z,-2.30
2023-03-16T21:47:54.337Z,-2.10
2023-03-16T21:50:44.540Z,-2.20
2023-03-16T21:53:34.582Z,-2.30
2023-03-16T21:56:26.882Z,-2.30
2023-03-16T21:59:17.899Z,-2.40
2023-03-16T22:02:19.508Z,-2.30
2023-03-16T22:05:36.162Z,-2.20
2023-03-16T22:08:31.843Z,-2.30
2023-03-16T22:11:23.560Z,-2.20
2023-03-16T22:14:13.399Z,-2.40
2023-03-16T22:17:04.816Z,-2.40
2023-03-16T22:19:54.534Z,-2.30
2023-03-16T22:22:44.359Z,-2.30
2023-03-16T22:25:34.565Z,-2.30
2023-03-16T22:28:24.210Z,-2.40
2023-03-16T22:31:17.691Z,-2.30
2023-03-16T22:34:12.031Z,-2.50
2023-03-16T22:37:03.862Z,-2.30
2023-03-16T22:39:54.082Z,-2.50
2023-03-16T22:42:43.664Z,-2.40
2023-03-16T22:45:35.388Z,-2.30
2023-03-16T22:48:26.911Z,-2.50
2023-03-16T22:51:25.580Z,-2.50
2023-03-16T22:54:19.963Z,-2.50
2023-03-16T22:57:14.300Z,-2.50
2023-03-16T23:00:11.649Z,-2.40
2023-03-16T23:03:01.580Z,-2.50
2023-03-16T23:05:52.130Z,-2.90
2023-03-16T23:08:43.194Z,-2.90
2023-03-16T23:11:35.243Z,-2.50
2023-03-16T23:14:26.958Z,-2.20
2023-03-16T23:17:19.320Z,-2.20
2023-03-16T23:20:21.022Z,-2.40
2023-03-16T23:23:11.223Z,-2.40
2023-03-16T23:26:02.885Z,-2.50
2023-03-16T23:28:54.286Z,-2.50
2023-03-16T23:31:43.950Z,-2.40
2023-03-16T23:34:33.450Z,-2.60
2023-03-16T23:37:23.115Z,-2.40
2023-03-16T23:40:14.669Z,-2.60
2023-03-16T23:43:05.806Z,-2.30
2023-03-16T23:45:55.365Z,-2.50
2023-03-16T23:48:47.349Z,-2.80
2023-03-16T23:51:40.143Z,-2.60
2023-03-16T23:54:32.183Z,-2.70
2023-03-16T23:57:22.047Z,-2.60
